Time;durP1;ratioP1;P1;durP2;ratioP2;P2;SDS_P1;SDS_P2;PMS_P1;PMS_P2;Temp;Humidity;BMP_temperature;BMP_pressure;BME280_temperature;BME280_humidity;BME280_pressure;Samples;Min_cycle;Max_cycle;Signal;HPM_P1;HPM_P2
2022/01/01 00:02:01;;;;;;;;;;;;;;;21.39;29.35;97932.25;4900716;29;933;-75
2022/01/01 00:04:27;;;;;;;;;;;;;;;22.06;28.17;97938.03;4900640;29;1907;-75
2022/01/01 00:06:52;;;;;;;;;;;;;;;22.02;28.45;97943.00;4948726;28;998;-75
2022/01/01 00:09:18;;;;;;;;;;;;;;;22.21;27.97;97939.22;4941756;29;944;-75
2022/01/01 00:11:43;;;;;;;;;;;;;;;22.48;27.85;97946.53;4958542;28;916;-75
2022/01/01 00:14:08;;;;;;;;;;;;;;;22.20;28.16;97954.66;4960141;28;1012;-75
2022/01/01 00:16:34;;;;;;;;;;;;;;;22.65;27.38;97944.41;4959443;28;944;-75
2022/01/01 00:18:59;;;;;;;;;;;;;;;22.45;27.61;97947.44;4925360;28;973;-75
2022/01/01 00:21:25;;;;;;;;;;;;;;;22.46;27.86;97960.38;4959453;28;936;-74
2022/01/01 00:23:50;;;;;;;;;;;;;;;22.48;27.35;97952.97;4959738;28;1902;-75
2022/01/01 00:26:16;;;;;;;;;;;;;;;22.63;27.03;97954.13;4959673;28;984;-75
2022/01/01 00:28:41;;;;;;;;;;;;;;;21.96;27.98;97954.09;4958900;28;1465;-74
2022/01/01 00:31:07;;;;;;;;;;;;;;;21.75;28.18;97947.00;4937833;29;1071;-75
2022/01/01 00:33:32;;;;;;;;;;;;;;;21.87;28.15;97942.66;4937593;29;1003;-75
2022/01/01 00:35:58;;;;;;;;;;;;;;;21.96;28.32;97931.44;4937965;29;1038;-74
2022/01/01 00:38:24;;;;;;;;;;;;;;;21.81;28.19;97927.41;4937574;29;1099;-75
2022/01/01 00:40:49;;;;;;;;;;;;;;;22.19;28.00;97921.09;4899741;29;995;-75
2022/01/01 00:43:15;;;;;;;;;;;;;;;22.25;27.89;97922.91;4899420;29;1923;-75
2022/01/01 00:45:40;;;;;;;;;;;;;;;22.14;28.03;97922.44;4899635;29;1027;-75
2022/01/01 00:48:08;;;;;;;;;;;;;;;22.33;27.77;97921.47;4899567;29;987;-75
2022/01/01 00:50:34;;;;;;;;;;;;;;;22.40;27.64;97925.31;4899575;29;965;-75
2022/01/01 00:53:00;;;;;;;;;;;;;;;22.38;27.59;97922.13;4899721;29;1003;-75
2022/01/01 00:55:25;;;;;;;;;;;;;;;22.87;27.31;97926.22;4899682;29;1028;-75
2022/01/01 00:57:51;;;;;;;;;;;;;;;22.49;27.82;97928.28;4883210;29;1205;-74
2022/01/01 01:00:16;;;;;;;;;;;;;;;21.77;29.31;97932.41;4899453;29;1078;-75
2022/01/01 01:02:44;;;;;;;;;;;;;;;21.56;29.60;97922.47;4913393;29;1907;-74
2022/01/01 01:05:09;;;;;;;;;;;;;;;22.12;28.88;97916.41;4917996;29;992;-75
2022/01/01 01:07:35;;;;;;;;;;;;;;;22.31;28.22;97908.97;4918191;29;989;-75
2022/01/01 01:10:00;;;;;;;;;;;;;;;22.25;28.28;97905.13;4918434;29;1007;-75
2022/01/01 01:12:35;;;;;;;;;;;;;;;22.07;28.88;97902.78;4918158;29;1110;-75
2022/01/01 01:15:00;;;;;;;;;;;;;;;21.66;29.49;97907.22;4918151;29;1011;-75
2022/01/01 01:17:26;;;;;;;;;;;;;;;21.36;29.83;97904.84;4925021;29;946;-75
2022/01/01 01:19:51;;;;;;;;;;;;;;;21.81;29.32;97908.41;4958483;28;915;-75
2022/01/01 01:22:17;;;;;;;;;;;;;;;22.17;28.78;97907.38;4958496;28;933;-75
2022/01/01 01:24:43;;;;;;;;;;;;;;;22.23;28.62;97902.75;4957751;28;1977;-75
2022/01/01 01:27:08;;;;;;;;;;;;;;;21.47;29.79;97888.34;4940280;28;974;-75
2022/01/01 01:29:41;;;;;;;;;;;;;;;21.66;29.52;97893.06;4924564;29;1280;-75
2022/01/01 01:32:07;;;;;;;;;;;;;;;21.81;29.30;97888.59;4958456;28;977;-75
2022/01/01 01:34:33;;;;;;;;;;;;;;;22.24;28.20;97881.66;4958316;28;907;-75
2022/01/01 01:36:58;;;;;;;;;;;;;;;21.82;29.21;97878.84;4958629;28;1002;-75
2022/01/01 01:39:24;;;;;;;;;;;;;;;21.39;29.63;97873.59;4957852;29;1191;-75
2022/01/01 01:41:51;;;;;;;;;;;;;;;21.49;29.32;97871.72;4940263;29;1018;-75
2022/01/01 01:44:32;;;;;;;;;;;;;;;21.75;28.98;97867.72;4958111;28;1983;-75
2022/01/01 01:47:00;;;;;;;;;;;;;;;22.22;28.22;97866.34;4924335;29;1014;-75
2022/01/01 01:49:25;;;;;;;;;;;;;;;22.03;28.49;97860.41;4958159;28;997;-75
2022/01/01 01:51:51;;;;;;;;;;;;;;;22.40;28.15;97860.91;4936349;29;997;-75
2022/01/01 01:54:17;;;;;;;;;;;;;;;21.84;29.00;97864.22;4936504;29;1008;-75
2022/01/01 01:56:43;;;;;;;;;;;;;;;22.18;28.59;97865.69;4920996;29;1167;-75
2022/01/01 01:59:10;;;;;;;;;;;;;;;21.59;29.06;97859.28;4920919;29;1077;-75
2022/01/01 02:01:35;;;;;;;;;;;;;;;21.94;28.87;97856.66;4936906;29;961;-75
2022/01/01 02:04:01;;;;;;;;;;;;;;;21.97;28.65;97847.25;4936619;29;1926;-75
2022/01/01 02:06:26;;;;;;;;;;;;;;;21.83;28.95;97849.28;4936418;29;985;-75
2022/01/01 02:08:52;;;;;;;;;;;;;;;22.25;28.20;97852.06;4920863;29;962;-75
2022/01/01 02:11:21;;;;;;;;;;;;;;;22.06;28.54;97844.53;4936342;29;1016;-75
2022/01/01 02:18:48;;;;;;;;;;;;;;;21.94;28.41;97839.66;4905351;29;1198;-75
2022/01/01 02:21:14;;;;;;;;;;;;;;;22.32;27.97;97840.50;4936205;29;1005;-75
2022/01/01 02:23:44;;;;;;;;;;;;;;;22.15;27.94;97827.69;4954564;28;1985;-75
2022/01/01 02:26:12;;;;;;;;;;;;;;;21.85;28.16;97834.66;4957592;28;1207;-75
2022/01/01 02:28:47;;;;;;;;;;;;;;;21.87;28.61;97839.88;4957787;28;969;-75
2022/01/01 02:31:13;;;;;;;;;;;;;;;22.41;27.61;97844.69;4957881;28;974;-75
2022/01/01 02:33:44;;;;;;;;;;;;;;;22.22;27.85;97833.13;4935838;29;1102;-75
2022/01/01 02:36:10;;;;;;;;;;;;;;;22.10;28.14;97834.72;4938325;29;990;-75
2022/01/01 02:38:35;;;;;;;;;;;;;;;22.30;27.42;97842.19;4939927;29;1073;-75
2022/01/01 02:41:01;;;;;;;;;;;;;;;22.22;27.73;97827.44;4908246;29;1013;-75
2022/01/01 02:43:26;;;;;;;;;;;;;;;22.47;27.42;97825.84;4939965;29;1985;-75
2022/01/01 02:45:52;;;;;;;;;;;;;;;22.21;27.72;97830.75;4939646;29;960;-75
2022/01/01 02:48:17;;;;;;;;;;;;;;;22.33;27.23;97822.25;4939789;29;1098;-75
2022/01/01 02:50:43;;;;;;;;;;;;;;;22.22;27.41;97830.28;4939579;29;996;-75
2022/01/01 02:53:14;;;;;;;;;;;;;;;21.93;28.04;97821.88;4939368;29;1050;-75
2022/01/01 02:55:40;;;;;;;;;;;;;;;22.02;27.81;97826.84;4939506;29;913;-75
2022/01/01 02:58:05;;;;;;;;;;;;;;;21.68;28.38;97822.63;4939273;29;1029;-75
2022/01/01 03:00:31;;;;;;;;;;;;;;;21.89;28.02;97817.56;4939393;29;899;-75
2022/01/01 03:02:56;;;;;;;;;;;;;;;21.85;28.01;97820.50;4939260;29;1911;-75
2022/01/01 03:05:22;;;;;;;;;;;;;;;22.08;27.55;97822.22;4927203;29;988;-75
2022/01/01 03:07:47;;;;;;;;;;;;;;;22.13;27.60;97818.06;4960679;28;967;-74
2022/01/01 03:10:13;;;;;;;;;;;;;;;21.95;28.03;97802.38;4960512;28;945;-75
2022/01/01 03:12:38;;;;;;;;;;;;;;;21.80;28.19;97801.22;4960775;28;925;-75
2022/01/01 03:15:04;;;;;;;;;;;;;;;22.00;27.71;97793.31;4960523;28;983;-75
2022/01/01 03:17:29;;;;;;;;;;;;;;;21.90;27.83;97790.81;4960895;28;916;-75
2022/01/01 03:19:55;;;;;;;;;;;;;;;21.94;28.15;97786.63;4942655;28;1001;-75
2022/01/01 03:22:20;;;;;;;;;;;;;;;21.85;28.47;97790.13;4960951;28;945;-75
2022/01/01 03:24:46;;;;;;;;;;;;;;;21.59;28.91;97792.13;4942459;28;1895;-75
2022/01/01 03:27:11;;;;;;;;;;;;;;;21.91;28.22;97783.88;4960345;28;993;-75
2022/01/01 03:29:43;;;;;;;;;;;;;;;21.49;28.94;97786.78;4960154;28;994;-75
2022/01/01 03:32:11;;;;;;;;;;;;;;;21.75;28.59;97779.91;4960155;28;929;-75
2022/01/01 03:34:36;;;;;;;;;;;;;;;21.78;28.48;97796.00;4960240;28;979;-75
2022/01/01 03:37:02;;;;;;;;;;;;;;;21.88;28.81;97804.66;4960819;28;865;-75
2022/01/01 03:39:29;;;;;;;;;;;;;;;21.73;28.89;97793.75;4960331;28;924;-75
2022/01/01 03:41:55;;;;;;;;;;;;;;;21.57;29.35;97791.00;4960395;28;1178;-75
2022/01/01 03:44:20;;;;;;;;;;;;;;;21.67;29.11;97798.38;4938557;29;1903;-75
2022/01/01 03:46:46;;;;;;;;;;;;;;;22.30;28.01;97783.47;4906413;29;982;-75
2022/01/01 03:49:11;;;;;;;;;;;;;;;22.02;28.09;97796.50;4906885;29;1038;-75
2022/01/01 03:51:37;;;;;;;;;;;;;;;21.67;28.51;97787.06;4938625;29;1093;-75
2022/01/01 03:54:02;;;;;;;;;;;;;;;22.07;28.46;97798.75;4938312;29;983;-75
2022/01/01 03:56:28;;;;;;;;;;;;;;;22.08;28.49;97799.56;4938683;29;1279;-75
2022/01/01 03:58:53;;;;;;;;;;;;;;;22.34;28.24;97786.97;4938195;29;1004;-75
2022/01/01 04:01:18;;;;;;;;;;;;;;;22.51;28.19;97792.50;4938597;29;973;-75
2022/01/01 04:03:44;;;;;;;;;;;;;;;22.04;29.30;97787.53;4937876;29;1911;-75
2022/01/01 04:06:09;;;;;;;;;;;;;;;22.74;28.35;97789.28;4938261;29;1053;-75
2022/01/01 04:08:35;;;;;;;;;;;;;;;22.65;28.23;97791.25;4937972;29;977;-75
2022/01/01 04:11:00;;;;;;;;;;;;;;;22.68;28.35;97785.44;4922096;29;1190;-75
2022/01/01 04:13:26;;;;;;;;;;;;;;;22.16;29.08;97806.59;4938000;29;996;-75
2022/01/01 04:15:51;;;;;;;;;;;;;;;21.65;29.79;97812.19;4953278;28;1058;-75
2022/01/01 04:18:26;;;;;;;;;;;;;;;21.64;29.64;97827.59;4959507;28;981;-75
2022/01/01 04:20:52;;;;;;;;;;;;;;;22.06;28.61;97816.19;4942863;28;948;-75
2022/01/01 04:23:20;;;;;;;;;;;;;;;21.98;29.11;97820.50;4959492;28;1964;-75
2022/01/01 04:25:47;;;;;;;;;;;;;;;22.20;28.98;97829.16;4959392;28;900;-75
2022/01/01 04:28:13;;;;;;;;;;;;;;;21.40;30.35;97823.44;4959255;28;1003;-75
2022/01/01 04:30:40;;;;;;;;;;;;;;;22.01;29.07;97819.59;4959471;28;971;-75
2022/01/01 04:33:06;;;;;;;;;;;;;;;22.18;29.07;97821.13;4959431;28;903;-75
2022/01/01 04:35:31;;;;;;;;;;;;;;;22.24;29.07;97824.97;4959377;28;877;-75
2022/01/01 04:37:57;;;;;;;;;;;;;;;22.14;29.12;97825.31;4959246;28;912;-75
2022/01/01 04:40:22;;;;;;;;;;;;;;;22.02;29.18;97818.34;4958915;28;978;-75
2022/01/01 04:42:48;;;;;;;;;;;;;;;21.95;29.15;97812.91;4958627;28;2029;-75
2022/01/01 04:45:14;;;;;;;;;;;;;;;21.50;30.24;97816.66;4959217;28;1096;-75
2022/01/01 04:47:39;;;;;;;;;;;;;;;22.01;28.93;97811.09;4959101;28;1015;-75
2022/01/01 04:50:05;;;;;;;;;;;;;;;21.74;29.63;97815.16;4959134;28;991;-75
2022/01/01 04:52:30;;;;;;;;;;;;;;;21.76;29.85;97807.00;4958983;28;992;-74
2022/01/01 04:54:56;;;;;;;;;;;;;;;21.60;30.06;97798.56;4958959;28;913;-75
2022/01/01 04:57:26;;;;;;;;;;;;;;;21.88;29.75;97801.81;4940129;28;1228;-75
2022/01/01 04:59:52;;;;;;;;;;;;;;;22.04;29.25;97802.50;4958517;28;971;-75
2022/01/01 05:02:17;;;;;;;;;;;;;;;21.70;29.89;97797.47;4958559;28;919;-75
2022/01/01 05:04:42;;;;;;;;;;;;;;;22.04;28.97;97815.88;4958546;28;1981;-75
2022/01/01 05:07:08;;;;;;;;;;;;;;;22.13;28.26;97809.56;4958416;28;920;-75
2022/01/01 05:09:33;;;;;;;;;;;;;;;22.02;28.92;97807.00;4958631;28;950;-75
2022/01/01 05:11:59;;;;;;;;;;;;;;;21.97;28.86;97804.78;4940606;28;966;-75
2022/01/01 05:14:25;;;;;;;;;;;;;;;22.09;29.08;97812.47;4958447;28;1012;-75
2022/01/01 05:16:51;;;;;;;;;;;;;;;22.19;29.17;97811.38;4958324;28;1000;-75
2022/01/01 05:19:17;;;;;;;;;;;;;;;22.49;28.21;97806.38;4958588;28;886;-75
2022/01/01 05:21:43;;;;;;;;;;;;;;;22.59;28.25;97811.69;4958304;28;925;-75
2022/01/01 05:24:08;;;;;;;;;;;;;;;23.07;27.66;97806.81;4958147;28;1981;-75
2022/01/01 05:26:34;;;;;;;;;;;;;;;22.36;28.85;97812.03;4957963;28;857;-75
2022/01/01 05:28:59;;;;;;;;;;;;;;;21.78;29.61;97804.50;4958506;29;859;-75
2022/01/01 05:31:25;;;;;;;;;;;;;;;21.88;29.86;97804.66;4958630;28;788;-75
2022/01/01 05:33:50;;;;;;;;;;;;;;;22.15;29.49;97807.06;4941254;29;1479;-75
2022/01/01 05:36:16;;;;;;;;;;;;;;;22.14;29.18;97792.09;4958068;28;705;-75
2022/01/01 05:38:44;;;;;;;;;;;;;;;22.35;28.78;97791.41;4958036;28;738;-75
2022/01/01 05:41:09;;;;;;;;;;;;;;;21.91;29.48;97789.56;4957937;28;799;-75
2022/01/01 05:43:35;;;;;;;;;;;;;;;21.66;30.00;97790.31;4939838;29;1915;-75
2022/01/01 05:46:00;;;;;;;;;;;;;;;21.69;30.15;97790.22;4958005;28;800;-75
2022/01/01 05:48:26;;;;;;;;;;;;;;;22.26;29.14;97785.63;4957799;28;811;-75
2022/01/01 05:50:51;;;;;;;;;;;;;;;22.45;28.37;97783.00;4924264;29;977;-75
2022/01/01 05:53:20;;;;;;;;;;;;;;;22.27;28.62;97775.88;4956861;29;689;-75
2022/01/01 05:55:48;;;;;;;;;;;;;;;21.44;29.99;97790.16;4939755;29;958;-75
2022/01/01 05:58:13;;;;;;;;;;;;;;;22.17;28.76;97791.16;4958032;29;1264;-75
2022/01/01 06:00:39;;;;;;;;;;;;;;;22.23;28.88;97789.38;4957881;28;1211;-75
2022/01/01 06:03:04;;;;;;;;;;;;;;;22.24;28.55;97785.28;4957867;28;1907;-75
2022/01/01 06:05:33;;;;;;;;;;;;;;;22.28;28.65;97788.81;4957999;28;744;-75
2022/01/01 06:08:01;;;;;;;;;;;;;;;22.64;28.65;97796.13;4956518;29;846;-75
2022/01/01 06:10:27;;;;;;;;;;;;;;;22.46;28.56;97801.59;4958789;28;1133;-75
2022/01/01 06:12:53;;;;;;;;;;;;;;;22.06;29.22;97802.03;4943975;28;926;-75
2022/01/01 06:15:18;;;;;;;;;;;;;;;22.07;29.63;97801.59;4960137;29;886;-75
2022/01/01 06:17:44;;;;;;;;;;;;;;;22.08;29.44;97805.22;4960761;29;761;-75
2022/01/01 06:20:09;;;;;;;;;;;;;;;22.36;29.27;97795.81;4943398;29;1020;-75
2022/01/01 06:22:35;;;;;;;;;;;;;;;22.44;28.87;97798.44;4943307;28;928;-75
2022/01/01 06:25:00;;;;;;;;;;;;;;;21.97;29.10;97813.28;4961806;29;1918;-75
2022/01/01 06:27:28;;;;;;;;;;;;;;;22.12;28.78;97810.78;4943476;29;957;-75
2022/01/01 06:29:53;;;;;;;;;;;;;;;22.30;28.66;97817.47;4961522;28;808;-75
2022/01/01 06:32:19;;;;;;;;;;;;;;;22.23;28.96;97826.22;4961538;28;859;-75
2022/01/01 06:34:44;;;;;;;;;;;;;;;22.22;28.74;97835.94;4961078;29;843;-75
2022/01/01 06:37:10;;;;;;;;;;;;;;;22.52;28.31;97822.44;4960871;28;767;-75
2022/01/01 06:39:35;;;;;;;;;;;;;;;22.26;28.64;97833.81;4961228;28;689;-75
2022/01/01 06:42:03;;;;;;;;;;;;;;;22.41;28.50;97839.03;4961117;28;744;-75
2022/01/01 06:44:28;;;;;;;;;;;;;;;22.56;28.26;97845.81;4961037;28;1906;-75
2022/01/01 06:46:56;;;;;;;;;;;;;;;22.41;28.40;97856.81;4960888;28;808;-75
2022/01/01 06:49:22;;;;;;;;;;;;;;;21.89;29.22;97854.38;4942988;28;941;-75
2022/01/01 06:51:47;;;;;;;;;;;;;;;21.74;29.51;97843.47;4939329;29;931;-76
2022/01/01 06:54:13;;;;;;;;;;;;;;;22.07;29.01;97848.94;4939550;29;979;-75
2022/01/01 06:56:41;;;;;;;;;;;;;;;21.99;29.40;97858.94;4901280;29;1083;-74
2022/01/01 06:59:08;;;;;;;;;;;;;;;22.32;29.02;97851.81;4901368;29;955;-75
2022/01/01 07:01:34;;;;;;;;;;;;;;;22.22;29.14;97861.47;4901760;29;1033;-75
2022/01/01 07:03:59;;;;;;;;;;;;;;;22.26;28.97;97852.84;4901216;29;1919;-75
2022/01/01 07:06:24;;;;;;;;;;;;;;;22.43;28.65;97847.84;4901088;29;1076;-74
2022/01/01 07:08:50;;;;;;;;;;;;;;;22.65;28.34;97854.44;4901431;29;922;-74
2022/01/01 07:11:15;;;;;;;;;;;;;;;22.93;28.50;97860.41;4901274;29;1053;-74
2022/01/01 07:13:41;;;;;;;;;;;;;;;22.65;28.52;97848.75;4901388;29;1051;-74
2022/01/01 07:16:06;;;;;;;;;;;;;;;22.15;29.51;97852.41;4901509;29;945;-74
2022/01/01 07:18:32;;;;;;;;;;;;;;;21.95;29.55;97852.56;4901418;29;1022;-75
2022/01/01 07:20:57;;;;;;;;;;;;;;;22.06;29.27;97865.16;4900423;29;1175;-75
2022/01/01 07:23:22;;;;;;;;;;;;;;;22.35;29.05;97859.44;4915123;29;1911;-74
2022/01/01 07:25:48;;;;;;;;;;;;;;;21.94;29.68;97862.31;4919851;29;995;-74
2022/01/01 07:28:16;;;;;;;;;;;;;;;21.51;30.70;97877.72;4882300;29;971;-74
2022/01/01 07:30:44;;;;;;;;;;;;;;;21.49;30.81;97885.84;4882420;29;1124;-74
2022/01/01 07:33:13;;;;;;;;;;;;;;;21.68;30.24;97884.91;4882055;29;1080;-74
2022/01/01 07:35:38;;;;;;;;;;;;;;;22.03;29.42;97887.94;4882542;29;979;-76
2022/01/01 07:38:04;;;;;;;;;;;;;;;22.07;29.77;97891.44;4882601;29;1051;-75
2022/01/01 07:40:30;;;;;;;;;;;;;;;21.77;30.37;97890.72;4882326;29;970;-75
2022/01/01 07:42:56;;;;;;;;;;;;;;;21.59;30.66;97894.06;4882074;29;1907;-75
2022/01/01 07:45:21;;;;;;;;;;;;;;;22.14;29.78;97893.31;4882119;29;1038;-74
2022/01/01 07:47:47;;;;;;;;;;;;;;;22.04;29.84;97889.53;4881847;29;949;-74
2022/01/01 07:50:12;;;;;;;;;;;;;;;21.22;31.20;97892.63;4881736;29;978;-75
2022/01/01 07:52:38;;;;;;;;;;;;;;;21.12;31.35;97888.03;4829668;29;1801;-75
2022/01/01 07:55:04;;;;;;;;;;;;;;;21.96;29.65;97899.47;4845077;29;1037;-75
2022/01/01 07:57:29;;;;;;;;;;;;;;;21.52;30.49;97902.75;4855253;29;1184;-75
2022/01/01 07:59:55;;;;;;;;;;;;;;;21.51;30.74;97898.34;4892922;29;1019;-74
2022/01/01 08:02:20;;;;;;;;;;;;;;;21.77;29.87;97904.88;4900560;29;895;-74
2022/01/01 08:04:45;;;;;;;;;;;;;;;22.23;29.02;97902.75;4900355;29;1982;-74
2022/01/01 08:07:11;;;;;;;;;;;;;;;21.35;30.79;97906.06;4900537;29;1033;-75
2022/01/01 08:09:38;;;;;;;;;;;;;;;21.36;30.91;97913.34;4900084;29;1078;-74
2022/01/01 08:12:05;;;;;;;;;;;;;;;22.25;29.30;97905.13;4900437;29;973;-74
2022/01/01 08:14:30;;;;;;;;;;;;;;;22.23;29.03;97907.63;4900123;29;986;-75
2022/01/01 08:16:57;;;;;;;;;;;;;;;22.16;29.05;97908.63;4900140;29;1113;-75
2022/01/01 08:19:22;;;;;;;;;;;;;;;22.17;29.00;97907.38;4899968;29;949;-75
2022/01/01 08:21:48;;;;;;;;;;;;;;;22.14;29.05;97908.28;4900106;29;1047;-75
2022/01/01 08:24:16;;;;;;;;;;;;;;;21.92;29.69;97910.16;4899867;29;1903;-75
2022/01/01 08:26:41;;;;;;;;;;;;;;;21.74;29.89;97910.66;4900055;29;1072;-74
2022/01/01 08:29:10;;;;;;;;;;;;;;;22.07;29.10;97912.09;4906634;29;982;-74
2022/01/01 08:31:35;;;;;;;;;;;;;;;22.02;29.19;97909.00;4959502;28;980;-75
2022/01/01 08:34:03;;;;;;;;;;;;;;;21.38;30.32;97916.50;4958352;28;907;-75
2022/01/01 08:36:28;;;;;;;;;;;;;;;21.50;30.14;97904.44;4959085;28;1049;-74
2022/01/01 08:38:54;;;;;;;;;;;;;;;21.55;29.96;97901.06;4959270;28;914;-75
2022/01/01 08:41:19;;;;;;;;;;;;;;;21.72;29.68;97902.59;4959185;28;1094;-74
2022/01/01 08:43:45;;;;;;;;;;;;;;;22.03;29.13;97899.28;4959040;28;1895;-74
2022/01/01 08:46:11;;;;;;;;;;;;;;;22.22;28.83;97895.47;4958756;28;964;-74
2022/01/01 08:48:37;;;;;;;;;;;;;;;21.53;30.19;97895.06;4940966;28;1003;-75
2022/01/01 08:51:17;;;;;;;;;;;;;;;21.12;30.62;97892.91;4958856;28;866;-75
2022/01/01 08:53:43;;;;;;;;;;;;;;;21.38;30.44;97888.19;4958836;28;891;-74
2022/01/01 08:56:09;;;;;;;;;;;;;;;22.10;28.63;97882.06;4958141;28;1063;-75
2022/01/01 08:58:37;;;;;;;;;;;;;;;22.03;29.16;97885.13;4939578;29;1052;-74
2022/01/01 09:01:02;;;;;;;;;;;;;;;22.26;28.49;97884.03;4939521;29;928;-75
2022/01/01 09:03:28;;;;;;;;;;;;;;;22.08;28.64;97873.22;4939601;29;1974;-75
2022/01/01 09:05:53;;;;;;;;;;;;;;;21.40;29.92;97880.03;4938758;29;1180;-75
2022/01/01 09:08:19;;;;;;;;;;;;;;;22.03;28.52;97882.28;4938222;29;1007;-74
2022/01/01 09:10:44;;;;;;;;;;;;;;;21.59;29.39;97877.06;4939542;29;988;-74
2022/01/01 09:13:10;;;;;;;;;;;;;;;22.04;28.97;97875.38;4939237;29;853;-75
2022/01/01 09:15:38;;;;;;;;;;;;;;;21.73;29.34;97881.53;4938949;29;927;-75
2022/01/01 09:18:03;;;;;;;;;;;;;;;22.03;28.74;97882.28;4939305;29;882;-75
2022/01/01 09:20:31;;;;;;;;;;;;;;;22.10;28.43;97879.22;4939303;29;943;-75
2022/01/01 09:22:57;;;;;;;;;;;;;;;21.92;28.94;97881.81;4939625;29;957;-75
2022/01/01 09:25:24;;;;;;;;;;;;;;;21.40;29.96;97878.03;4939332;29;1906;-74
2022/01/01 09:27:50;;;;;;;;;;;;;;;22.13;28.48;97863.41;4920975;29;993;-75
2022/01/01 09:30:15;;;;;;;;;;;;;;;21.48;29.83;97859.59;4937563;29;960;-75
2022/01/01 09:32:41;;;;;;;;;;;;;;;21.36;29.99;97851.84;4921384;29;1120;-75
2022/01/01 09:35:06;;;;;;;;;;;;;;;21.62;29.73;97858.41;4939082;29;956;-75
2022/01/01 09:37:32;;;;;;;;;;;;;;;22.09;28.88;97843.63;4938760;29;920;-75
2022/01/01 09:39:57;;;;;;;;;;;;;;;22.16;28.50;97842.66;4922026;29;1525;-74
2022/01/01 09:42:23;;;;;;;;;;;;;;;22.16;28.65;97834.94;4938773;29;928;-75
2022/01/01 09:44:49;;;;;;;;;;;;;;;22.08;28.93;97833.56;4901057;29;1915;-75
2022/01/01 09:47:15;;;;;;;;;;;;;;;21.77;29.39;97842.59;4842910;29;1279;-74
2022/01/01 09:49:41;;;;;;;;;;;;;;;22.10;28.80;97843.22;4827915;29;1110;-75
2022/01/01 09:52:06;;;;;;;;;;;;;;;22.18;28.30;97843.78;4843139;29;973;-75
2022/01/01 09:54:32;;;;;;;;;;;;;;;22.05;28.33;97862.78;4827586;29;1013;-75
2022/01/01 09:56:57;;;;;;;;;;;;;;;22.15;28.60;97878.69;4842913;29;1091;-75
2022/01/01 09:59:23;;;;;;;;;;;;;;;21.38;30.09;97872.00;4828052;29;1050;-75
2022/01/01 10:01:48;;;;;;;;;;;;;;;21.07;30.62;97872.41;4843344;29;976;-75
2022/01/01 10:04:14;;;;;;;;;;;;;;;21.82;29.00;97856.19;4827739;29;1915;-75
2022/01/01 10:06:39;;;;;;;;;;;;;;;21.92;28.83;97864.81;4843138;29;972;-75
2022/01/01 10:09:07;;;;;;;;;;;;;;;22.20;28.78;97880.97;4842791;29;951;-75
2022/01/01 10:11:33;;;;;;;;;;;;;;;21.88;29.42;97875.47;4827659;29;1019;-74
2022/01/01 10:13:59;;;;;;;;;;;;;;;21.89;29.43;97871.38;4842159;29;2091;-75
2022/01/01 10:16:24;;;;;;;;;;;;;;;22.04;29.31;97861.19;4855463;29;1050;-74
2022/01/01 10:18:51;;;;;;;;;;;;;;;22.14;28.85;97860.09;4938324;29;1013;-75
2022/01/01 10:21:27;;;;;;;;;;;;;;;21.77;29.96;97859.56;4908706;29;971;-74
2022/01/01 10:23:54;;;;;;;;;;;;;;;21.82;29.85;97867.50;4957862;28;1984;-74
2022/01/01 10:29:27;;;;;;;;;;;;;;;22.15;29.04;97863.72;4957752;28;915;-75
2022/01/01 10:31:53;;;;;;;;;;;;;;;22.11;28.88;97861.00;4940846;28;1028;-74
2022/01/01 10:34:19;;;;;;;;;;;;;;;21.86;29.89;97856.06;4957505;28;1017;-74
2022/01/01 10:36:45;;;;;;;;;;;;;;;21.72;30.03;97862.97;4957772;28;1137;-74
2022/01/01 10:39:11;;;;;;;;;;;;;;;21.59;30.28;97853.63;4940579;29;931;-75
2022/01/01 10:41:44;;;;;;;;;;;;;;;22.00;29.23;97854.84;4957630;28;1112;-74
2022/01/01 10:44:12;;;;;;;;;;;;;;;22.01;29.42;97856.44;4957290;28;1978;-75
2022/01/01 10:46:41;;;;;;;;;;;;;;;21.76;29.99;97863.66;4940379;29;924;-74
2022/01/01 10:49:31;;;;;;;;;;;;;;;21.97;29.86;97855.75;4957493;28;1019;-75
2022/01/01 10:52:20;;;;;;;;;;;;;;;22.33;28.58;97867.59;4942290;29;1011;-75
2022/01/01 10:54:52;;;;;;;;;;;;;;;21.91;29.30;97868.88;4917068;29;988;-74
2022/01/01 10:57:24;;;;;;;;;;;;;;;21.59;30.53;97871.41;4928584;29;1157;-75
2022/01/01 10:59:50;;;;;;;;;;;;;;;21.68;30.00;97861.47;4939170;29;954;-75
2022/01/01 11:02:15;;;;;;;;;;;;;;;22.15;29.12;97866.56;4901282;29;1015;-74
2022/01/01 11:04:41;;;;;;;;;;;;;;;22.08;29.07;97857.00;4901206;29;1911;-75
2022/01/01 11:07:07;;;;;;;;;;;;;;;22.29;28.51;97855.59;4901079;29;1038;-74
2022/01/01 11:09:33;;;;;;;;;;;;;;;21.30;30.48;97854.44;4901481;29;956;-75
2022/01/01 11:12:02;;;;;;;;;;;;;;;21.77;30.14;97842.59;4901474;29;1060;-75
2022/01/01 11:14:29;;;;;;;;;;;;;;;21.68;30.19;97830.31;4901251;29;1007;-75
2022/01/01 11:16:55;;;;;;;;;;;;;;;21.97;29.44;97839.56;4901393;29;1030;-75
2022/01/01 11:19:21;;;;;;;;;;;;;;;22.12;29.20;97828.56;4901391;29;1048;-75
2022/01/01 11:21:46;;;;;;;;;;;;;;;22.06;29.20;97830.38;4901066;29;1005;-75
2022/01/01 11:24:13;;;;;;;;;;;;;;;22.08;29.56;97839.22;4900917;29;1903;-75
2022/01/01 11:26:38;;;;;;;;;;;;;;;21.40;30.50;97835.56;4870091;29;1533;-75
2022/01/01 11:29:04;;;;;;;;;;;;;;;21.86;29.82;97827.72;4901086;29;966;-75
2022/01/01 11:31:29;;;;;;;;;;;;;;;22.22;28.92;97826.66;4908894;29;1064;-75
2022/01/01 11:34:00;;;;;;;;;;;;;;;22.10;29.57;97814.88;4938046;29;1038;-75
2022/01/01 11:36:27;;;;;;;;;;;;;;;22.03;29.70;97814.28;4958034;29;1004;-75
2022/01/01 11:38:52;;;;;;;;;;;;;;;22.16;29.16;97817.94;4973033;28;958;-75
2022/01/01 11:41:18;;;;;;;;;;;;;;;22.24;28.76;97813.63;4979541;28;930;-75
2022/01/01 11:43:46;;;;;;;;;;;;;;;21.68;30.11;97822.63;4979520;28;1983;-75
2022/01/01 11:46:18;;;;;;;;;;;;;;;21.40;30.41;97823.44;4979430;28;869;-75
2022/01/01 11:48:51;;;;;;;;;;;;;;;22.03;29.10;97819.94;4962110;28;1021;-75
2022/01/01 11:51:31;;;;;;;;;;;;;;;22.31;28.72;97823.94;4919416;29;1044;-75
2022/01/01 11:54:03;;;;;;;;;;;;;;;22.27;28.92;97815.53;4919374;29;1063;-75
2022/01/01 11:56:49;;;;;;;;;;;;;;;21.96;29.47;97828.66;4919444;29;1304;-74
2022/01/01 11:59:17;;;;;;;;;;;;;;;21.98;29.24;97824.13;4919594;29;980;-75
2022/01/01 12:01:43;;;;;;;;;;;;;;;22.01;29.18;97828.09;4919170;29;1062;-75
2022/01/01 12:04:19;;;;;;;;;;;;;;;21.88;29.72;97824.47;4919523;29;1906;-75
2022/01/01 12:06:44;;;;;;;;;;;;;;;21.68;30.18;97828.28;4916641;29;989;-74
2022/01/01 12:09:10;;;;;;;;;;;;;;;22.28;28.86;97828.50;4903850;29;1040;-75
2022/01/01 12:11:36;;;;;;;;;;;;;;;22.25;29.10;97829.38;4903370;29;1122;-75
2022/01/01 12:14:04;;;;;;;;;;;;;;;21.81;29.72;97831.94;4919119;29;958;-74
2022/01/01 12:16:30;;;;;;;;;;;;;;;21.43;30.36;97829.00;4919443;29;1030;-74
2022/01/01 12:19:02;;;;;;;;;;;;;;;21.88;29.78;97830.94;4918833;29;892;-74
2022/01/01 12:21:27;;;;;;;;;;;;;;;22.16;29.26;97834.94;4929458;28;1306;-75
2022/01/01 12:23:57;;;;;;;;;;;;;;;22.35;28.78;97842.44;4978595;28;1906;-75
2022/01/01 12:26:24;;;;;;;;;;;;;;;21.46;30.29;97838.66;4978702;28;1084;-74
2022/01/01 12:28:49;;;;;;;;;;;;;;;21.28;31.09;97839.91;4975618;28;979;-74
2022/01/01 12:31:20;;;;;;;;;;;;;;;21.90;29.83;97830.47;4978931;28;1088;-75
2022/01/01 12:34:01;;;;;;;;;;;;;;;22.26;29.27;97833.81;4928600;28;1021;-75
2022/01/01 12:36:27;;;;;;;;;;;;;;;22.04;29.38;97835.69;4978283;28;1098;-75
2022/01/01 12:38:56;;;;;;;;;;;;;;;21.58;30.58;97829.38;4961096;28;952;-75
2022/01/01 12:41:22;;;;;;;;;;;;;;;21.71;30.62;97826.56;4961378;28;908;-75
2022/01/01 12:43:54;;;;;;;;;;;;;;;22.06;29.64;97836.03;4918160;29;1910;-74
2022/01/01 12:46:20;;;;;;;;;;;;;;;21.88;30.13;97835.81;4903415;29;982;-74
2022/01/01 12:48:46;;;;;;;;;;;;;;;21.93;29.95;97838.06;4918652;29;1036;-75
2022/01/01 12:51:22;;;;;;;;;;;;;;;22.15;29.51;97839.03;4918598;29;972;-74
2022/01/01 12:53:54;;;;;;;;;;;;;;;22.17;29.38;97836.50;4902928;29;1027;-74
2022/01/01 12:56:19;;;;;;;;;;;;;;;21.44;31.10;97832.63;4918133;29;1240;-74
2022/01/01 12:59:05;;;;;;;;;;;;;;;22.10;29.84;97836.72;4918390;29;954;-75
2022/01/01 13:01:31;;;;;;;;;;;;;;;22.21;29.26;97851.38;4902885;29;1056;-74
2022/01/01 13:03:57;;;;;;;;;;;;;;;22.12;29.56;97842.75;4918257;29;1911;-75
2022/01/01 13:06:24;;;;;;;;;;;;;;;21.61;30.88;97856.03;4918212;29;1198;-75
2022/01/01 13:08:49;;;;;;;;;;;;;;;21.74;30.61;97843.47;4918301;29;914;-75